Time;durP1;ratioP1;P1;durP2;ratioP2;P2;SDS_P1;SDS_P2;PMS_P1;PMS_P2;Temp;Humidity;BMP_temperature;BMP_pressure;BME280_temperature;BME280_humidity;BME280_pressure;Samples;Min_cycle;Max_cycle;Signal;HPM_P1;HPM_P2
2022/05/14 00:01:24;;;;;;;2.40;1.60;;;16.90;99.90;;;;;;7390014;19;20206;-78
2022/05/14 00:03:49;;;;;;;4.18;1.80;;;16.90;99.90;;;;;;7388470;19;20143;-78
2022/05/14 00:06:19;;;;;;;3.92;1.80;;;16.80;99.90;;;;;;7384771;19;20134;-78
2022/05/14 00:08:46;;;;;;;3.97;1.60;;;16.60;99.90;;;;;;7385724;19;20475;-75
2022/05/14 00:13:58;;;;;;;3.42;1.85;;;16.40;99.90;;;;;;7387545;19;20130;-79
2022/05/14 00:16:26;;;;;;;4.00;1.52;;;16.50;99.90;;;;;;7384478;19;20149;-74
2022/05/14 00:18:53;;;;;;;3.28;1.67;;;16.60;99.90;;;;;;7385611;19;20146;-77
2022/05/14 00:21:20;;;;;;;3.33;1.80;;;16.80;99.90;;;;;;7387991;19;20476;-77
2022/05/14 00:23:46;;;;;;;2.08;1.40;;;16.60;99.90;;;;;;7392885;19;20134;-78
2022/05/14 00:26:13;;;;;;;3.58;1.80;;;16.80;99.90;;;;;;7386060;19;20138;-75
2022/05/14 00:28:40;;;;;;;2.13;1.48;;;16.70;99.90;;;;;;7386241;19;20130;-79
2022/05/14 00:31:05;;;;;;;2.10;1.58;;;16.50;99.90;;;;;;7385433;19;20198;-76
2022/05/14 00:33:31;;;;;;;5.35;1.80;;;16.40;99.90;;;;;;7384911;19;20130;-76
2022/05/14 00:35:57;;;;;;;3.42;2.03;;;16.70;99.90;;;;;;7387437;19;20123;-75
2022/05/14 00:38:23;;;;;;;2.90;1.63;;;16.70;99.90;;;;;;7381656;19;20127;-74
2022/05/14 00:41:04;;;;;;;5.80;2.05;;;16.70;99.90;;;;;;7386355;19;20551;-78
2022/05/14 00:43:31;;;;;;;5.05;2.08;;;16.20;99.90;;;;;;7385309;19;20129;-77
2022/05/14 00:46:20;;;;;;;4.15;2.00;;;16.20;99.90;;;;;;7389626;19;20122;-77
2022/05/14 00:48:48;;;;;;;3.78;1.85;;;16.30;99.90;;;;;;7391621;19;20697;-76
2022/05/14 00:51:18;;;;;;;4.78;2.15;;;15.90;99.90;;;;;;7395004;19;20130;-80
2022/05/14 00:53:49;;;;;;;3.58;1.77;;;15.90;99.90;;;;;;7398042;19;20515;-79
2022/05/14 00:56:19;;;;;;;4.90;2.30;;;16.10;99.90;;;;;;7395092;19;20160;-78
2022/05/14 00:59:07;;;;;;;4.10;1.63;;;16.20;99.90;;;;;;7393203;19;20511;-74
2022/05/14 01:01:34;;;;;;;3.88;2.00;;;16.20;99.90;;;;;;7392930;19;20134;-77
2022/05/14 01:04:01;;;;;;;4.03;1.80;;;16.10;99.90;;;;;;7391793;19;20912;-75
2022/05/14 01:06:29;;;;;;;7.57;2.20;;;16.00;99.90;;;;;;7392687;19;20178;-76
2022/05/14 01:08:57;;;;;;;2.92;1.70;;;16.00;99.90;;;;;;7402386;19;20131;-75
2022/05/14 01:11:23;;;;;;;3.25;1.98;;;16.00;99.90;;;;;;7390877;19;20610;-75
2022/05/14 01:13:49;;;;;;;3.78;2.00;;;16.10;99.90;;;;;;7390434;19;20158;-76
2022/05/14 01:16:15;;;;;;;6.45;1.95;;;16.20;99.90;;;;;;7390644;19;20127;-75
2022/05/14 01:18:41;;;;;;;5.43;2.03;;;16.30;99.90;;;;;;7391581;19;20221;-78
2022/05/14 01:21:38;;;;;;;4.72;2.30;;;16.30;99.90;;;;;;7393999;19;20139;-76
2022/05/14 01:27:14;;;;;;;3.42;1.60;;;16.30;99.90;;;;;;7391810;19;20135;-74
2022/05/14 01:29:42;;;;;;;5.45;2.45;;;16.10;99.90;;;;;;7403853;19;20618;-75
2022/05/14 01:32:08;;;;;;;4.43;1.95;;;16.20;99.90;;;;;;7392747;19;20149;-74
2022/05/14 01:34:35;;;;;;;4.57;1.90;;;16.20;99.90;;;;;;7390099;19;20572;-78
2022/05/14 01:37:02;;;;;;;3.47;2.22;;;16.20;99.90;;;;;;7390610;19;20134;-77
2022/05/14 01:39:28;;;;;;;4.55;2.10;;;16.10;99.90;;;;;;7389797;19;20242;-75
2022/05/14 01:41:54;;;;;;;4.03;2.42;;;15.60;99.90;;;;;;7392275;19;20143;-78
2022/05/14 01:44:20;;;;;;;4.60;1.70;;;15.50;99.90;;;;;;7392921;19;20143;-75
2022/05/14 01:46:47;;;;;;;3.42;1.63;;;15.50;99.90;;;;;;7395550;19;20131;-75
2022/05/14 01:49:13;;;;;;;3.10;1.70;;;15.30;99.90;;;;;;7394032;19;20499;-75
2022/05/14 01:51:42;;;;;;;3.50;1.73;;;15.50;99.90;;;;;;7387776;19;20160;-77
2022/05/14 01:54:08;;;;;;;3.42;1.90;;;15.50;99.90;;;;;;7393158;19;20206;-77
2022/05/14 01:56:34;;;;;;;6.63;1.90;;;15.50;99.90;;;;;;7395308;19;20131;-79
2022/05/14 01:58:59;;;;;;;3.22;1.45;;;15.50;99.90;;;;;;7393180;19;20130;-75
2022/05/14 02:01:31;;;;;;;3.65;2.05;;;15.80;99.90;;;;;;7389633;19;20130;-74
2022/05/14 02:04:10;;;;;;;2.92;1.45;;;15.40;99.90;;;;;;7390281;19;20123;-75
2022/05/14 02:06:37;;;;;;;3.55;1.45;;;15.60;99.90;;;;;;7389315;19;20142;-78
2022/05/14 02:09:05;;;;;;;2.80;1.70;;;15.70;99.90;;;;;;7392135;19;20142;-78
2022/05/14 02:11:31;;;;;;;3.72;1.60;;;15.80;99.90;;;;;;7391620;19;20134;-77
2022/05/14 02:13:57;;;;;;;4.18;1.77;;;15.90;99.90;;;;;;7389438;19;20153;-74
2022/05/14 02:16:23;;;;;;;4.25;2.35;;;15.70;99.90;;;;;;7391449;19;20154;-78
2022/05/14 02:18:49;;;;;;;2.78;1.80;;;15.40;99.90;;;;;;7390316;19;20765;-74
2022/05/14 02:21:15;;;;;;;4.35;1.67;;;15.50;99.90;;;;;;7388533;19;20130;-78
2022/05/14 02:23:41;;;;;;;2.92;2.00;;;15.50;99.90;;;;;;7389218;19;20145;-75
2022/05/14 02:26:11;;;;;;;4.22;2.00;;;15.40;99.90;;;;;;7387266;19;20537;-76
2022/05/14 02:28:38;;;;;;;3.47;1.77;;;15.30;99.90;;;;;;7388424;19;20142;-77
2022/05/14 02:31:04;;;;;;;3.30;1.80;;;15.50;99.90;;;;;;7387716;19;20150;-74
2022/05/14 02:33:30;;;;;;;2.92;2.25;;;15.20;99.90;;;;;;7387900;19;20705;-74
2022/05/14 02:35:57;;;;;;;3.85;2.20;;;15.10;99.90;;;;;;7391160;19;20150;-78
2022/05/14 02:38:22;;;;;;;3.00;2.20;;;14.90;99.90;;;;;;7385800;19;20123;-77
2022/05/14 02:40:48;;;;;;;5.35;2.92;;;15.10;99.90;;;;;;7389826;19;20155;-79
2022/05/14 02:43:14;;;;;;;3.08;2.30;;;15.00;99.90;;;;;;7387323;19;20193;-75
2022/05/14 02:45:40;;;;;;;6.10;2.17;;;14.90;99.90;;;;;;7389582;19;20118;-75
2022/05/14 02:48:08;;;;;;;3.40;1.98;;;15.30;99.90;;;;;;7387156;19;20122;-77
2022/05/14 02:50:34;;;;;;;6.43;2.22;;;15.20;99.90;;;;;;7392515;19;20519;-74
2022/05/14 02:53:00;;;;;;;4.47;1.90;;;15.30;99.90;;;;;;7387619;19;20127;-78
2022/05/14 02:55:26;;;;;;;7.00;2.08;;;15.40;99.90;;;;;;7389344;19;20130;-75
2022/05/14 02:57:51;;;;;;;2.78;2.03;;;15.10;99.90;;;;;;7389746;19;20566;-77
2022/05/14 03:00:20;;;;;;;3.47;2.10;;;15.20;99.90;;;;;;7396731;19;20147;-78
2022/05/14 03:02:46;;;;;;;5.60;2.25;;;15.40;99.90;;;;;;7389420;19;20130;-74
2022/05/14 03:05:13;;;;;;;6.80;2.20;;;15.40;99.90;;;;;;7386987;19;20256;-76
2022/05/14 03:07:40;;;;;;;5.13;2.28;;;15.40;99.90;;;;;;7385954;19;20518;-76
2022/05/14 03:10:06;;;;;;;4.55;2.25;;;15.40;99.90;;;;;;7389383;19;20251;-75
2022/05/14 03:12:32;;;;;;;4.50;2.30;;;14.90;99.90;;;;;;7386373;19;20149;-75
2022/05/14 03:14:59;;;;;;;5.40;2.40;;;15.00;99.90;;;;;;7386435;19;20142;-78
2022/05/14 03:17:25;;;;;;;3.67;2.30;;;14.70;99.90;;;;;;7385347;19;20226;-78
2022/05/14 03:19:51;;;;;;;5.60;2.10;;;14.70;99.90;;;;;;7386001;19;20139;-77
2022/05/14 03:22:17;;;;;;;4.50;1.80;;;15.00;99.90;;;;;;7387427;19;20123;-77
2022/05/14 03:24:42;;;;;;;7.07;2.00;;;14.90;99.90;;;;;;7387329;19;20609;-77
2022/05/14 03:27:08;;;;;;;3.45;1.98;;;15.10;99.90;;;;;;7385065;19;20145;-75
2022/05/14 03:29:35;;;;;;;5.30;2.15;;;14.90;99.90;;;;;;7387801;19;20181;-78
2022/05/14 03:32:01;;;;;;;2.33;1.65;;;14.90;99.90;;;;;;7388384;19;20141;-75
2022/05/14 03:34:27;;;;;;;2.92;2.10;;;15.00;99.90;;;;;;7387781;19;20657;-78
2022/05/14 03:36:54;;;;;;;2.95;1.30;;;15.10;99.90;;;;;;7384104;19;20138;-77
2022/05/14 03:39:20;;;;;;;2.42;1.35;;;15.00;99.90;;;;;;7386203;19;20202;-79
2022/05/14 03:41:46;;;;;;;3.72;1.33;;;15.10;99.90;;;;;;7388404;19;20144;-74
2022/05/14 03:44:12;;;;;;;2.05;1.40;;;15.20;99.90;;;;;;7390066;19;20123;-77
2022/05/14 03:46:38;;;;;;;3.10;1.50;;;15.30;99.90;;;;;;7385695;19;20146;-74
2022/05/14 03:49:04;;;;;;;2.63;1.30;;;15.30;99.90;;;;;;7386190;19;20521;-78
2022/05/14 03:51:32;;;;;;;3.70;1.30;;;15.30;99.90;;;;;;7387168;19;20138;-77
2022/05/14 03:53:58;;;;;;;1.75;1.40;;;15.20;99.90;;;;;;7387471;19;20126;-75
2022/05/14 03:56:24;;;;;;;2.20;1.30;;;15.20;99.90;;;;;;7384733;19;20127;-74
2022/05/14 03:58:50;;;;;;;5.75;1.50;;;15.20;99.90;;;;;;7386410;19;20136;-74
2022/05/14 04:01:17;;;;;;;1.23;1.13;;;15.20;99.90;;;;;;7385080;19;20161;-77
2022/05/14 04:03:43;;;;;;;3.40;1.17;;;15.20;99.90;;;;;;7387736;19;20482;-77
2022/05/14 04:06:09;;;;;;;2.22;1.05;;;15.20;99.90;;;;;;7387369;19;20134;-75
2022/05/14 04:08:35;;;;;;;5.65;1.45;;;15.10;99.90;;;;;;7385077;19;21149;-76
2022/05/14 04:11:01;;;;;;;1.50;1.00;;;15.10;99.90;;;;;;7386655;19;20170;-74
2022/05/14 04:13:27;;;;;;;2.33;0.82;;;15.10;99.90;;;;;;7385042;19;20131;-77
2022/05/14 04:15:53;;;;;;;3.80;1.00;;;15.10;99.90;;;;;;7385281;19;20168;-76
2022/05/14 04:18:24;;;;;;;1.65;1.13;;;15.20;99.90;;;;;;7384319;19;20131;-74
2022/05/14 04:20:58;;;;;;;2.63;1.15;;;15.10;99.90;;;;;;7385682;19;20130;-77
2022/05/14 04:23:28;;;;;;;2.83;1.27;;;15.20;99.90;;;;;;7394415;19;20122;-74
2022/05/14 04:25:54;;;;;;;2.75;1.17;;;15.20;99.90;;;;;;7396593;19;20154;-75
2022/05/14 04:28:20;;;;;;;2.65;1.52;;;15.10;99.90;;;;;;7393008;19;20173;-77
2022/05/14 04:30:47;;;;;;;2.17;1.27;;;15.20;99.90;;;;;;7391372;19;20226;-74
2022/05/14 04:33:13;;;;;;;2.65;1.05;;;15.10;99.90;;;;;;7391685;19;20152;-77
2022/05/14 04:35:39;;;;;;;7.55;1.25;;;14.80;99.90;;;;;;7391743;19;20153;-77
2022/05/14 04:38:05;;;;;;;3.13;1.30;;;15.00;99.90;;;;;;7388717;19;20133;-77
2022/05/14 04:40:31;;;;;;;1.23;0.93;;;15.10;99.90;;;;;;7393646;19;20126;-77
2022/05/14 04:42:58;;;;;;;4.32;1.00;;;15.10;99.90;;;;;;7391429;19;20134;-75
2022/05/14 04:45:24;;;;;;;1.83;1.00;;;15.20;99.90;;;;;;7391550;19;20155;-77
2022/05/14 04:47:50;;;;;;;2.97;1.15;;;14.90;99.90;;;;;;7393818;19;20127;-77
2022/05/14 04:50:16;;;;;;;2.75;1.38;;;15.00;99.90;;;;;;7394881;19;20143;-75
2022/05/14 04:52:42;;;;;;;3.00;1.13;;;15.00;99.90;;;;;;7393134;19;20474;-78
2022/05/14 04:55:09;;;;;;;3.42;1.20;;;15.20;99.90;;;;;;7393040;19;20126;-75
2022/05/14 04:57:34;;;;;;;2.47;1.13;;;15.10;99.90;;;;;;7388824;19;20493;-75
2022/05/14 05:00:01;;;;;;;3.88;1.20;;;15.10;99.90;;;;;;7394827;19;20146;-77
2022/05/14 05:05:12;;;;;;;3.22;1.40;;;15.10;99.90;;;;;;7392639;19;20133;-76
2022/05/14 05:07:38;;;;;;;1.77;1.10;;;15.00;99.90;;;;;;7389995;19;20565;-76
2022/05/14 05:10:05;;;;;;;1.98;1.30;;;15.10;99.90;;;;;;7395899;19;20126;-76
2022/05/14 05:12:30;;;;;;;4.93;1.35;;;15.10;99.90;;;;;;7393146;19;20136;-74
2022/05/14 05:14:56;;;;;;;2.78;1.30;;;15.10;99.90;;;;;;7389978;19;20761;-76
2022/05/14 05:17:22;;;;;;;1.10;1.00;;;15.30;99.90;;;;;;7388613;19;20135;-77
2022/05/14 05:19:48;;;;;;;10.80;1.25;;;15.20;99.90;;;;;;7392385;19;20134;-74
2022/05/14 05:22:15;;;;;;;8.60;1.38;;;15.10;99.90;;;;;;7390584;19;20139;-75
2022/05/14 05:24:41;;;;;;;2.25;1.10;;;15.10;99.90;;;;;;7391466;19;20126;-74
2022/05/14 05:27:08;;;;;;;2.47;1.10;;;15.10;99.90;;;;;;7391095;19;20138;-75
2022/05/14 05:29:35;;;;;;;1.08;0.90;;;15.10;99.90;;;;;;7391907;19;20170;-74
2022/05/14 05:32:01;;;;;;;1.77;1.10;;;15.20;99.90;;;;;;7389378;19;20195;-77
2022/05/14 05:34:27;;;;;;;1.73;1.08;;;15.40;99.90;;;;;;7389749;19;20126;-74
2022/05/14 05:36:53;;;;;;;3.35;1.05;;;15.40;99.90;;;;;;7390347;19;20123;-77
2022/05/14 05:39:19;;;;;;;1.75;1.20;;;15.50;99.90;;;;;;7389425;19;20147;-74
2022/05/14 05:41:44;;;;;;;2.55;1.15;;;15.40;99.90;;;;;;7391891;19;20127;-77
2022/05/14 05:44:11;;;;;;;3.10;1.20;;;15.20;99.90;;;;;;7390091;19;20198;-77
2022/05/14 05:46:37;;;;;;;3.45;1.40;;;15.10;99.90;;;;;;7389434;19;20127;-75
2022/05/14 05:49:05;;;;;;;4.70;1.27;;;14.90;99.90;;;;;;7389661;19;20153;-77
2022/05/14 05:51:31;;;;;;;1.63;1.25;;;15.00;99.90;;;;;;7390016;19;20494;-77
2022/05/14 05:56:56;;;;;;;3.38;1.55;;;15.20;99.90;;;;;;7391957;19;20138;-75
2022/05/14 05:59:22;;;;;;;2.50;1.50;;;15.60;99.90;;;;;;7391572;19;20151;-76
2022/05/14 06:01:48;;;;;;;1.70;1.10;;;15.70;99.90;;;;;;7388997;19;20130;-78
2022/05/14 06:04:14;;;;;;;6.70;1.90;;;15.80;99.90;;;;;;7390737;19;20134;-76
2022/05/14 06:06:43;;;;;;;10.07;2.22;;;15.80;99.90;;;;;;7389529;19;20127;-75
2022/05/14 06:09:15;;;;;;;2.75;1.83;;;15.90;99.90;;;;;;7390538;19;20134;-77
2022/05/14 06:11:42;;;;;;;4.50;1.83;;;15.90;99.90;;;;;;7389053;19;20206;-75
2022/05/14 06:14:09;;;;;;;3.30;1.90;;;15.90;99.90;;;;;;7388951;19;20186;-74
2022/05/14 06:16:35;;;;;;;3.83;1.95;;;16.00;99.90;;;;;;7388078;19;20134;-75
2022/05/14 06:19:01;;;;;;;4.43;2.10;;;16.10;99.90;;;;;;7392180;19;20138;-73
2022/05/14 06:21:27;;;;;;;3.35;2.00;;;16.60;99.90;;;;;;7389623;19;20152;-74
2022/05/14 06:23:54;;;;;;;3.17;1.92;;;17.20;99.90;;;;;;7387723;19;20247;-75
2022/05/14 06:26:20;;;;;;;3.45;2.00;;;18.00;99.90;;;;;;7388406;19;20143;-75
2022/05/14 06:28:46;;;;;;;3.15;2.17;;;19.10;99.90;;;;;;7391410;19;20229;-74
2022/05/14 06:31:12;;;;;;;3.80;2.10;;;19.80;99.90;;;;;;7388400;19;20242;-74
2022/05/14 06:33:38;;;;;;;6.47;2.03;;;20.10;99.90;;;;;;7390579;19;20137;-74
2022/05/14 06:36:04;;;;;;;3.47;2.03;;;20.40;99.90;;;;;;7389800;19;20126;-76
2022/05/14 06:38:30;;;;;;;5.28;1.65;;;20.70;99.90;;;;;;7384990;19;20198;-75
2022/05/14 06:40:55;;;;;;;7.57;2.75;;;20.80;99.90;;;;;;7390931;19;20130;-76
2022/05/14 06:43:21;;;;;;;1.88;1.67;;;20.70;99.90;;;;;;7388619;19;20138;-75
2022/05/14 06:45:47;;;;;;;2.58;1.83;;;21.00;99.90;;;;;;7389212;19;20115;-76
2022/05/14 06:48:13;;;;;;;4.63;2.25;;;21.10;99.90;;;;;;7386821;19;20130;-74
2022/05/14 06:50:48;;;;;;;2.20;1.85;;;20.90;99.90;;;;;;7390590;19;20122;-74
2022/05/14 06:53:15;;;;;;;4.93;2.28;;;20.90;99.90;;;;;;7388531;19;20130;-76
2022/05/14 06:55:44;;;;;;;5.57;2.55;;;20.90;99.90;;;;;;7387442;19;20165;-74
2022/05/14 06:58:14;;;;;;;2.22;1.83;;;21.00;99.90;;;;;;7386332;19;20122;-76
2022/05/14 07:00:40;;;;;;;3.92;1.90;;;21.10;99.90;;;;;;7388601;19;20801;-74
2022/05/14 07:08:37;;;;;;;2.72;1.60;;;20.90;99.90;;;;;;7387403;19;20139;-75
2022/05/14 07:11:03;;;;;;;4.00;1.90;;;21.00;99.90;;;;;;7385402;19;20614;-74
2022/05/14 07:13:29;;;;;;;1.88;1.50;;;21.10;99.90;;;;;;7386838;19;20218;-75
2022/05/14 07:15:55;;;;;;;5.05;1.92;;;21.40;99.90;;;;;;7389966;19;20260;-76
2022/05/14 07:18:21;;;;;;;3.20;1.70;;;21.60;99.90;;;;;;7389506;19;20159;-75
2022/05/14 07:20:47;;;;;;;2.60;1.58;;;21.70;99.90;;;;;;7391759;19;20149;-75
2022/05/14 07:23:13;;;;;;;3.05;1.70;;;21.50;99.90;;;;;;7386701;19;20135;-75
2022/05/14 07:25:42;;;;;;;3.35;1.65;;;21.50;99.90;;;;;;7389559;19;20166;-75
2022/05/14 07:28:08;;;;;;;2.92;1.60;;;21.60;99.90;;;;;;7385923;19;20161;-75
2022/05/14 07:30:35;;;;;;;2.95;1.58;;;21.80;99.90;;;;;;7385991;19;20246;-76
2022/05/14 07:33:01;;;;;;;2.00;1.65;;;22.00;99.90;;;;;;7385197;19;20172;-75
2022/05/14 07:35:28;;;;;;;5.82;1.88;;;21.90;99.90;;;;;;7378283;19;20155;-74
2022/05/14 07:37:56;;;;;;;4.88;2.03;;;21.90;99.90;;;;;;7383374;19;20135;-73
2022/05/14 07:40:26;;;;;;;3.03;1.75;;;21.90;99.90;;;;;;7385660;19;20135;-74
2022/05/14 07:43:26;;;;;;;5.32;1.65;;;21.90;99.90;;;;;;7392591;19;20470;-72
2022/05/14 07:45:59;;;;;;;3.03;1.40;;;22.00;99.90;;;;;;7384374;19;20146;-73
2022/05/14 07:48:30;;;;;;;3.55;1.42;;;22.10;99.90;;;;;;7385019;19;20130;-74
2022/05/14 07:50:59;;;;;;;2.13;1.40;;;22.30;99.90;;;;;;7387889;19;20614;-72
2022/05/14 07:53:30;;;;;;;2.30;1.23;;;22.50;99.90;;;;;;7386546;19;20561;-72
2022/05/14 07:55:57;;;;;;;3.05;1.60;;;22.30;99.90;;;;;;7376057;19;20145;-76
2022/05/14 07:58:24;;;;;;;1.75;1.30;;;22.40;99.90;;;;;;7381702;19;20146;-72
2022/05/14 08:00:50;;;;;;;3.08;1.20;;;22.60;99.90;;;;;;7389568;19;20222;-72
2022/05/14 08:03:16;;;;;;;2.78;1.25;;;22.80;99.80;;;;;;7388881;19;20205;-73
2022/05/14 08:05:43;;;;;;;1.75;1.35;;;22.90;99.10;;;;;;7386634;19;20139;-73
2022/05/14 08:08:09;;;;;;;2.67;1.02;;;23.00;98.70;;;;;;7385796;19;20226;-72
2022/05/14 08:10:36;;;;;;;3.45;1.10;;;23.20;98.00;;;;;;7386148;19;20165;-73
2022/05/14 08:13:02;;;;;;;3.45;0.90;;;23.20;97.40;;;;;;7383936;19;20395;-73
2022/05/14 08:15:28;;;;;;;2.28;1.30;;;23.10;97.30;;;;;;7381283;19;20154;-73
2022/05/14 08:17:54;;;;;;;4.18;1.13;;;23.00;97.10;;;;;;7383566;19;20138;-72
2022/05/14 08:20:21;;;;;;;2.70;1.20;;;23.10;97.10;;;;;;7385359;19;20174;-73
2022/05/14 08:25:32;;;;;;;1.98;1.10;;;23.10;96.70;;;;;;7385309;19;20134;-76
2022/05/14 08:27:58;;;;;;;4.18;1.33;;;23.20;96.20;;;;;;7380490;19;20497;-74
2022/05/14 08:30:28;;;;;;;3.35;1.30;;;23.40;96.10;;;;;;7381030;19;20174;-75
2022/05/14 08:32:54;;;;;;;2.25;1.20;;;23.30;95.70;;;;;;7385145;19;20130;-76
2022/05/14 08:35:22;;;;;;;0.82;0.80;;;23.30;95.80;;;;;;7389773;19;20135;-72
2022/05/14 08:37:50;;;;;;;3.40;1.30;;;23.50;95.70;;;;;;7381443;19;20226;-73
2022/05/14 08:40:29;;;;;;;1.48;0.73;;;23.70;95.30;;;;;;7387379;19;20158;-70
2022/05/14 08:43:10;;;;;;;1.58;0.85;;;23.70;94.80;;;;;;7386931;19;20157;-72
2022/05/14 08:45:40;;;;;;;1.85;1.00;;;23.30;95.00;;;;;;7384270;19;20147;-75
2022/05/14 08:48:36;;;;;;;1.50;1.00;;;23.00;95.60;;;;;;7374429;19;20898;-75
2022/05/14 08:51:18;;;;;;;2.92;1.00;;;22.70;95.80;;;;;;7386677;19;20607;-74
2022/05/14 08:53:47;;;;;;;1.27;0.77;;;22.30;96.20;;;;;;7382601;19;20493;-74
2022/05/14 08:56:20;;;;;;;2.67;1.00;;;22.30;96.50;;;;;;7377540;19;20214;-73
2022/05/14 08:59:07;;;;;;;5.00;1.00;;;22.10;96.70;;;;;;7379701;19;20247;-74
2022/05/14 09:01:39;;;;;;;2.50;1.17;;;22.00;97.00;;;;;;7377603;19;20146;-75
2022/05/14 09:04:08;;;;;;;3.08;1.10;;;22.10;96.90;;;;;;7379828;19;20131;-75
2022/05/14 09:06:37;;;;;;;3.38;1.10;;;22.00;96.90;;;;;;7384565;19;20146;-74
2022/05/14 09:09:02;;;;;;;1.88;1.10;;;22.00;96.90;;;;;;7393804;19;20134;-75
2022/05/14 09:11:55;;;;;;;2.28;1.10;;;22.30;96.90;;;;;;7390450;19;20966;-75
2022/05/14 09:14:31;;;;;;;3.40;1.60;;;22.60;96.10;;;;;;7401070;19;20146;-74
2022/05/14 09:17:12;;;;;;;2.03;1.30;;;22.50;96.40;;;;;;7388459;19;20151;-75
2022/05/14 09:19:43;;;;;;;3.03;1.13;;;22.40;96.60;;;;;;7392124;19;20146;-76
2022/05/14 09:22:24;;;;;;;3.60;1.20;;;22.30;96.90;;;;;;7291163;19;20550;-74
2022/05/14 09:24:54;;;;;;;3.25;1.13;;;22.20;97.00;;;;;;7369705;19;20162;-74
2022/05/14 09:27:44;;;;;;;1.52;0.85;;;22.10;96.90;;;;;;7385291;19;20683;-78
2022/05/14 09:30:23;;;;;;;1.15;0.90;;;22.30;96.90;;;;;;7332900;19;20186;-78
2022/05/14 09:32:49;;;;;;;3.60;1.00;;;22.30;96.40;;;;;;7375500;19;20198;-77
2022/05/14 09:35:20;;;;;;;2.13;0.90;;;22.10;96.60;;;;;;7390554;19;20225;-81
2022/05/14 09:37:46;;;;;;;2.17;0.80;;;22.00;96.60;;;;;;7119109;19;20193;-77
2022/05/14 09:40:20;;;;;;;2.22;1.15;;;22.10;96.60;;;;;;7321661;19;20190;-76
2022/05/14 09:42:50;;;;;;;1.83;0.90;;;22.30;96.20;;;;;;7340353;19;20235;-78
2022/05/14 09:45:25;;;;;;;2.47;1.17;;;22.30;96.10;;;;;;7392004;19;20676;-78
2022/05/14 09:47:50;;;;;;;1.67;0.90;;;22.10;96.20;;;;;;7392936;19;20134;-82
2022/05/14 09:50:28;;;;;;;2.28;1.05;;;22.10;96.90;;;;;;7392325;19;20586;-80
2022/05/14 09:53:04;;;;;;;1.90;0.85;;;22.60;97.00;;;;;;7391847;19;20134;-81
2022/05/14 09:55:50;;;;;;;2.75;1.08;;;22.80;95.80;;;;;;7394078;19;20166;-80
2022/05/14 09:58:49;;;;;;;4.80;1.20;;;22.70;96.20;;;;;;7388159;19;20170;-76
2022/05/14 10:01:28;;;;;;;3.08;1.13;;;22.60;96.20;;;;;;7390685;19;20198;-78
2022/05/14 10:04:05;;;;;;;0.95;0.80;;;22.50;96.40;;;;;;7393505;19;20620;-80
2022/05/14 10:07:10;;;;;;;3.55;1.52;;;22.40;96.50;;;;;;7391473;19;20566;-78
2022/05/14 10:09:53;;;;;;;2.53;1.13;;;22.60;96.50;;;;;;7386299;19;20147;-76
2022/05/14 10:12:25;;;;;;;2.55;1.17;;;22.60;96.40;;;;;;7389934;19;20146;-74
2022/05/14 10:15:28;;;;;;;2.72;1.00;;;22.60;96.40;;;;;;7387691;19;20126;-76
2022/05/14 10:18:05;;;;;;;2.25;1.10;;;22.50;96.20;;;;;;7395195;19;20469;-78
2022/05/14 10:21:10;;;;;;;1.92;1.10;;;22.80;96.20;;;;;;7394178;19;20676;-76
2022/05/14 10:27:02;;;;;;;2.30;1.27;;;22.80;95.80;;;;;;7393152;19;20671;-80
2022/05/14 10:29:40;;;;;;;1.92;1.10;;;22.70;95.60;;;;;;7391938;19;20155;-78
2022/05/14 10:32:16;;;;;;;3.25;1.00;;;22.60;95.60;;;;;;7380835;19;20221;-78
2022/05/14 10:34:57;;;;;;;2.90;0.90;;;22.50;95.60;;;;;;7382577;19;20607;-75
2022/05/14 10:37:32;;;;;;;2.22;1.13;;;22.50;95.60;;;;;;7381751;19;20137;-77
2022/05/14 10:40:13;;;;;;;1.25;0.90;;;22.50;95.80;;;;;;7394143;19;20574;-77
2022/05/14 10:42:56;;;;;;;2.35;0.90;;;22.50;95.30;;;;;;7386099;19;20143;-78
2022/05/14 10:45:41;;;;;;;1.50;0.93;;;22.60;95.70;;;;;;7367487;19;20212;-79
2022/05/14 10:48:35;;;;;;;1.90;0.98;;;22.80;95.70;;;;;;7388895;19;20134;-78
2022/05/14 10:51:03;;;;;;;1.80;1.20;;;23.00;94.90;;;;;;7389521;19;20498;-78
2022/05/14 10:53:30;;;;;;;2.20;1.10;;;23.00;95.10;;;;;;7385013;19;20162;-78
2022/05/14 10:55:59;;;;;;;6.13;3.95;;;23.00;95.00;;;;;;7388194;19;20562;-76
2022/05/14 10:58:39;;;;;;;21.90;17.52;;;22.90;95.20;;;;;;7387521;19;20174;-77
2022/05/14 11:01:07;;;;;;;3.78;2.63;;;23.00;95.30;;;;;;7390240;19;20150;-77
2022/05/14 11:03:36;;;;;;;1.95;1.10;;;23.10;95.30;;;;;;7395910;19;20653;-76
2022/05/14 11:06:02;;;;;;;1.33;0.80;;;23.10;94.70;;;;;;7390465;19;20898;-76
2022/05/14 11:08:35;;;;;;;2.03;1.00;;;23.00;94.70;;;;;;7389671;19;20143;-75
2022/05/14 11:11:11;;;;;;;2.60;0.98;;;23.00;94.60;;;;;;7390956;19;20234;-77
2022/05/14 11:13:38;;;;;;;2.50;1.00;;;22.90;94.80;;;;;;7389291;19;20142;-77
2022/05/14 11:16:12;;;;;;;1.90;0.98;;;23.00;94.60;;;;;;7388735;19;20775;-77
2022/05/14 11:18:55;;;;;;;2.90;1.00;;;23.10;94.80;;;;;;7389168;19;20505;-81
2022/05/14 11:21:35;;;;;;;2.67;1.05;;;23.20;94.40;;;;;;7391654;19;20155;-79
2022/05/14 11:24:02;;;;;;;1.02;0.73;;;23.40;94.50;;;;;;7388889;19;20754;-74
2022/05/14 11:26:28;;;;;;;1.27;0.90;;;23.50;94.60;;;;;;7389880;19;20150;-74
2022/05/14 11:29:10;;;;;;;1.92;0.93;;;23.70;94.90;;;;;;7385238;19;20159;-76
2022/05/14 11:31:42;;;;;;;1.90;1.00;;;23.80;94.50;;;;;;7379364;19;20150;-74
2022/05/14 11:34:20;;;;;;;2.28;1.08;;;24.00;94.00;;;;;;7387841;19;20886;-77
2022/05/14 11:36:50;;;;;;;4.25;1.13;;;24.00;93.10;;;;;;7387666;19;20626;-75
2022/05/14 11:39:25;;;;;;;1.92;1.00;;;23.70;92.90;;;;;;7391809;19;20618;-77
2022/05/14 11:42:13;;;;;;;1.85;1.30;;;23.50;93.20;;;;;;7392468;19;20226;-76
2022/05/14 11:44:50;;;;;;;1.92;0.95;;;23.40;93.00;;;;;;7388121;19;20572;-75
2022/05/14 11:47:41;;;;;;;2.25;0.60;;;23.30;93.10;;;;;;7387711;19;20817;-74
2022/05/14 11:50:08;;;;;;;2.30;1.05;;;23.10;93.00;;;;;;7387659;19;20149;-74
2022/05/14 11:52:39;;;;;;;2.33;0.95;;;23.20;93.10;;;;;;7385038;19;20171;-76
2022/05/14 11:55:13;;;;;;;1.17;0.80;;;23.40;93.30;;;;;;7386066;19;20139;-74
2022/05/14 11:57:50;;;;;;;1.88;0.90;;;23.60;92.70;;;;;;7386922;19;20161;-73
2022/05/14 12:00:45;;;;;;;4.13;0.70;;;23.80;92.30;;;;;;7384421;19;20609;-76
2022/05/14 12:03:28;;;;;;;1.98;0.90;;;23.70;92.10;;;;;;7388797;19;20147;-75
2022/05/14 12:06:11;;;;;;;1.98;0.80;;;23.70;92.20;;;;;;7384302;19;20146;-75
2022/05/14 12:08:51;;;;;;;1.88;1.10;;;23.80;92.20;;;;;;7386630;19;20578;-75
2022/05/14 12:11:44;;;;;;;1.40;0.93;;;23.90;92.00;;;;;;7386364;19;20394;-74
2022/05/14 12:14:19;;;;;;;1.50;0.93;;;23.80;92.00;;;;;;7384343;19;20199;-75
2022/05/14 12:16:54;;;;;;;1.70;0.77;;;23.80;92.00;;;;;;7384067;19;20142;-76
2022/05/14 12:19:32;;;;;;;2.17;0.90;;;23.90;92.10;;;;;;7386159;19;20173;-75
2022/05/14 12:22:11;;;;;;;2.58;1.25;;;23.80;91.70;;;;;;7383508;19;20142;-76
2022/05/14 12:24:39;;;;;;;1.52;1.27;;;23.90;91.60;;;;;;7383114;19;20663;-74
2022/05/14 12:27:26;;;;;;;2.88;1.38;;;24.00;91.40;;;;;;7388277;19;20798;-74
2022/05/14 12:33:11;;;;;;;2.45;0.98;;;24.10;90.80;;;;;;7385499;19;20154;-74
2022/05/14 12:33:13;;;;;;;1.67;0.77;;;24.10;90.90;;;;;;7388303;19;20163;-76
2022/05/14 12:35:44;;;;;;;1.58;0.90;;;24.00;92.10;;;;;;7385018;19;20138;-74
2022/05/14 12:38:12;;;;;;;2.15;0.82;;;24.10;91.00;;;;;;7386480;19;20135;-77
2022/05/14 12:40:45;;;;;;;1.92;0.80;;;24.10;90.60;;;;;;7384046;19;20138;-78
2022/05/14 12:43:14;;;;;;;0.65;0.60;;;24.10;92.30;;;;;;7392478;19;20182;-78
2022/05/14 12:45:43;;;;;;;3.08;1.10;;;24.10;91.60;;;;;;7394563;19;20154;-76
2022/05/14 12:48:11;;;;;;;1.08;0.70;;;24.30;91.40;;;;;;7393938;19;20134;-77
2022/05/14 12:50:40;;;;;;;2.42;0.93;;;24.50;90.40;;;;;;7395445;19;20150;-73
2022/05/14 12:53:11;;;;;;;2.03;0.80;;;24.60;90.00;;;;;;7392174;19;20602;-74
2022/05/14 12:55:41;;;;;;;1.75;0.70;;;24.50;90.00;;;;;;7395581;19;20647;-72
2022/05/14 12:58:07;;;;;;;2.38;0.90;;;24.30;90.40;;;;;;7388939;19;20146;-72
2022/05/14 13:00:37;;;;;;;2.42;0.82;;;24.40;90.10;;;;;;7389073;19;20508;-73
2022/05/14 13:03:09;;;;;;;2.75;1.58;;;24.30;90.20;;;;;;7390289;19;20190;-73
2022/05/14 13:05:49;;;;;;;3.58;1.10;;;24.40;90.30;;;;;;7390712;19;20171;-76
2022/05/14 13:08:23;;;;;;;1.58;0.80;;;24.40;90.30;;;;;;7389004;19;20138;-79
2022/05/14 13:10:57;;;;;;;1.85;0.93;;;24.40;91.00;;;;;;7395385;19;20149;-76
2022/05/14 13:13:38;;;;;;;1.75;0.65;;;24.50;90.40;;;;;;7390451;19;20164;-78
2022/05/14 13:16:21;;;;;;;4.60;1.10;;;24.50;90.00;;;;;;7393818;19;20134;-82
2022/05/14 13:18:59;;;;;;;2.05;0.50;;;24.50;90.00;;;;;;7387291;19;20141;-77
2022/05/14 13:21:34;;;;;;;1.58;1.10;;;24.60;89.90;;;;;;7390343;19;20153;-77
2022/05/14 13:24:01;;;;;;;2.03;0.90;;;24.80;88.10;;;;;;7383884;19;20305;-80
2022/05/14 13:26:49;;;;;;;2.40;0.90;;;24.80;87.70;;;;;;7386552;19;20141;-81